createdAt,value
2024-01-03T00:00:26.269Z,2.80
2024-01-03T00:02:53.782Z,2.70
2024-01-03T00:05:42.316Z,2.80
2024-01-03T00:08:30.619Z,2.90
2024-01-03T00:10:58.260Z,3.10
2024-01-03T00:13:34.151Z,3.00
2024-01-03T00:16:08.356Z,3.40
2024-01-03T00:18:51.972Z,3.40
2024-01-03T00:21:23.754Z,3.20
2024-01-03T00:23:57.843Z,3.30
2024-01-03T00:26:28.264Z,3.50
2024-01-03T00:28:55.445Z,3.30
2024-01-03T00:31:45.643Z,3.50
2024-01-03T00:34:18.676Z,3.70
2024-01-03T00:36:49.969Z,3.60
2024-01-03T00:39:27.603Z,3.60
2024-01-03T00:41:55.685Z,3.40
2024-01-03T00:44:22.497Z,3.60
2024-01-03T00:46:50.150Z,4.00
2024-01-03T00:49:17.364Z,3.80
2024-01-03T00:51:46.813Z,3.90
2024-01-03T00:54:13.822Z,3.60
2024-01-03T00:56:41.076Z,4.00
2024-01-03T00:59:07.834Z,3.80
2024-01-03T01:01:34.887Z,3.90
2024-01-03T01:04:01.843Z,3.80
2024-01-03T01:06:29.951Z,3.60
2024-01-03T01:08:57.880Z,3.30
2024-01-03T01:11:24.895Z,3.70
2024-01-03T01:13:51.566Z,3.40
2024-01-03T01:16:18.410Z,3.60
2024-01-03T01:18:45.415Z,3.70
2024-01-03T01:21:12.424Z,3.80
2024-01-03T01:23:42.767Z,3.50
2024-01-03T01:26:09.977Z,3.60
2024-01-03T01:28:38.535Z,3.80
2024-01-03T01:31:05.203Z,3.20
2024-01-03T01:33:32.206Z,3.20
2024-01-03T01:35:59.143Z,3.20
2024-01-03T01:38:25.864Z,3.40
2024-01-03T01:40:52.518Z,3.50
2024-01-03T01:43:19.182Z,4.20
2024-01-03T01:45:46.023Z,4.10
2024-01-03T01:48:13.189Z,3.90
2024-01-03T01:50:40.560Z,3.50
2024-01-03T01:53:07.708Z,3.40
2024-01-03T01:55:37.862Z,3.30
2024-01-03T01:58:05.874Z,3.50
2024-01-03T02:00:32.904Z,3.20
2024-01-03T02:02:59.897Z,3.30
2024-01-03T02:05:26.661Z,3.00
2024-01-03T02:07:53.428Z,3.20
2024-01-03T02:10:20.367Z,3.00
2024-01-03T02:12:47.173Z,2.60
2024-01-03T02:15:14.331Z,2.70
2024-01-03T02:17:41.375Z,2.70
2024-01-03T02:20:08.762Z,2.90
2024-01-03T02:22:35.728Z,2.90
2024-01-03T02:25:06.689Z,2.70
2024-01-03T02:27:33.698Z,2.60
2024-01-03T02:30:00.565Z,3.60
2024-01-03T02:32:27.390Z,3.10
2024-01-03T02:34:54.190Z,2.40
2024-01-03T02:37:23.261Z,2.80
2024-01-03T02:39:50.481Z,2.60
2024-01-03T02:42:17.319Z,2.50
2024-01-03T02:44:44.112Z,2.60
2024-01-03T02:47:10.830Z,3.00
2024-01-03T02:49:37.449Z,2.40
2024-01-03T02:52:04.775Z,2.60
2024-01-03T02:54:31.661Z,2.40
2024-01-03T02:56:58.862Z,2.40
2024-01-03T02:59:26.749Z,2.50
2024-01-03T03:01:53.475Z,2.10
2024-01-03T03:04:20.339Z,2.00
2024-01-03T03:06:47.254Z,2.40
2024-01-03T03:09:17.075Z,2.40
2024-01-03T03:11:47.038Z,2.10
2024-01-03T03:14:15.073Z,1.70
2024-01-03T03:16:42.240Z,2.10
2024-01-03T03:19:09.303Z,2.00
2024-01-03T03:21:36.435Z,1.80
2024-01-03T03:24:03.382Z,1.60
2024-01-03T03:26:30.542Z,1.60
2024-01-03T03:28:57.786Z,1.60
2024-01-03T03:31:24.794Z,1.60
2024-01-03T03:33:51.740Z,1.60
2024-01-03T03:36:20.943Z,1.60
2024-01-03T03:38:47.821Z,1.90
2024-01-03T03:41:15.650Z,1.60
2024-01-03T03:43:42.478Z,1.50
2024-01-03T03:46:09.687Z,1.60
2024-01-03T03:48:36.624Z,1.70
2024-01-03T03:51:04.135Z,1.80
2024-01-03T03:53:31.073Z,1.90
2024-01-03T03:55:57.890Z,1.90
2024-01-03T03:58:24.732Z,1.90
2024-01-03T04:00:51.522Z,2.90
2024-01-03T04:03:18.598Z,2.90
2024-01-03T04:05:45.535Z,2.60
2024-01-03T04:08:12.611Z,2.10
2024-01-03T04:10:39.668Z,2.30
2024-01-03T04:13:06.710Z,2.30
2024-01-03T04:15:33.626Z,2.30
2024-01-03T04:18:01.639Z,2.30
2024-01-03T04:20:28.506Z,2.20
2024-01-03T04:22:55.530Z,2.30
2024-01-03T04:25:22.185Z,2.90
2024-01-03T04:27:48.840Z,2.90
2024-01-03T04:30:15.883Z,2.60
2024-01-03T04:32:43.347Z,2.50
2024-01-03T04:35:10.261Z,2.50
2024-01-03T04:37:37.092Z,2.30
2024-01-03T04:40:04.301Z,2.20
2024-01-03T04:42:31.395Z,2.10
2024-01-03T04:44:58.310Z,1.90
2024-01-03T04:47:25.312Z,2.40
2024-01-03T04:49:53.002Z,2.10
2024-01-03T04:52:20.297Z,1.80
2024-01-03T04:54:47.366Z,2.20
2024-01-03T04:57:14.934Z,1.40
2024-01-03T04:59:43.015Z,1.40
2024-01-03T05:02:09.838Z,1.40
2024-01-03T05:06:53.861Z,1.60
2024-01-03T05:09:20.791Z,1.50
2024-01-03T05:11:47.441Z,1.40
2024-01-03T05:14:14.009Z,1.30
2024-01-03T05:16:41.877Z,1.30
2024-01-03T05:19:08.929Z,1.30
2024-01-03T05:21:36.503Z,1.20
2024-01-03T05:24:03.581Z,1.20
2024-01-03T05:26:30.730Z,1.40
2024-01-03T05:28:57.531Z,1.20
2024-01-03T05:31:24.141Z,1.50
2024-01-03T05:33:50.931Z,1.60
2024-01-03T05:36:17.707Z,1.80
2024-01-03T05:38:44.706Z,2.10
2024-01-03T05:41:12.502Z,1.50
2024-01-03T05:43:39.273Z,1.40
2024-01-03T05:46:06.266Z,1.30
2024-01-03T05:48:33.334Z,1.30
2024-01-03T05:51:00.334Z,2.20
2024-01-03T05:53:27.038Z,2.60
2024-01-03T05:55:53.768Z,2.20
2024-01-03T05:58:20.297Z,1.60
2024-01-03T06:00:47.035Z,1.70
2024-01-03T06:03:13.756Z,1.40
2024-01-03T06:05:40.594Z,1.40
2024-01-03T06:08:08.135Z,2.00
2024-01-03T06:10:35.606Z,3.00
2024-01-03T06:13:02.552Z,3.80
2024-01-03T06:15:29.552Z,2.10
2024-01-03T06:17:56.372Z,1.20
2024-01-03T06:20:24.241Z,0.80
2024-01-03T06:22:51.411Z,1.10
2024-01-03T06:25:18.201Z,1.90
2024-01-03T06:27:45.235Z,2.00
2024-01-03T06:30:12.601Z,1.70
2024-01-03T06:32:39.923Z,1.70
2024-01-03T06:35:07.942Z,2.10
2024-01-03T06:37:34.695Z,1.90
2024-01-03T06:40:01.606Z,1.80
2024-01-03T06:42:29.031Z,2.20
2024-01-03T06:44:56.221Z,3.20
2024-01-03T06:47:22.990Z,2.30
2024-01-03T06:49:49.869Z,1.90
2024-01-03T06:52:16.530Z,1.90
2024-01-03T06:54:43.358Z,2.10
2024-01-03T06:57:10.276Z,2.10
2024-01-03T06:59:37.461Z,2.00
2024-01-03T07:02:04.533Z,2.70
2024-01-03T07:04:31.584Z,3.80
2024-01-03T07:06:58.274Z,4.20
2024-01-03T07:09:25.728Z,3.20
2024-01-03T07:11:53.995Z,3.30
2024-01-03T07:14:20.966Z,3.40
2024-01-03T07:16:50.751Z,4.90
2024-01-03T07:21:45.431Z,3.20
2024-01-03T07:24:12.020Z,3.60
2024-01-03T07:26:39.061Z,5.20
2024-01-03T07:29:05.938Z,5.60
2024-01-03T07:31:32.688Z,4.90
2024-01-03T07:33:59.750Z,4.50
2024-01-03T07:36:26.789Z,5.50
2024-01-03T07:38:55.033Z,5.70
2024-01-03T07:41:21.976Z,3.80
2024-01-03T07:43:48.590Z,6.60
2024-01-03T07:46:16.543Z,3.30
2024-01-03T07:48:43.514Z,4.80
2024-01-03T07:51:13.272Z,3.90
2024-01-03T07:53:40.072Z,3.80
2024-01-03T07:56:08.080Z,4.40
2024-01-03T07:58:35.027Z,4.20
2024-01-03T08:01:01.761Z,3.20
2024-01-03T08:03:28.946Z,3.40
2024-01-03T08:05:55.979Z,3.50
2024-01-03T08:08:22.801Z,3.00
2024-01-03T08:10:49.640Z,2.70
2024-01-03T08:13:17.168Z,2.60
2024-01-03T08:15:44.049Z,2.20
2024-01-03T08:18:11.153Z,2.90
2024-01-03T08:20:38.851Z,2.30
2024-01-03T08:23:05.898Z,2.80
2024-01-03T08:25:32.717Z,4.30
2024-01-03T08:27:59.588Z,5.40
2024-01-03T08:30:26.469Z,3.90
2024-01-03T08:32:53.409Z,5.20
2024-01-03T08:35:20.479Z,4.50
2024-01-03T08:37:47.386Z,4.40
2024-01-03T08:40:14.626Z,4.40
2024-01-03T08:42:41.495Z,5.20
2024-01-03T08:45:09.982Z,4.90
2024-01-03T08:47:36.895Z,4.60
2024-01-03T08:50:04.294Z,4.90
2024-01-03T08:52:31.636Z,5.20
2024-01-03T08:55:00.370Z,5.70
2024-01-03T08:57:27.764Z,6.70
2024-01-03T08:59:54.468Z,5.90
2024-01-03T09:02:21.198Z,4.80
2024-01-03T09:04:47.957Z,5.50
2024-01-03T09:07:14.909Z,5.50
2024-01-03T09:09:41.622Z,4.50
2024-01-03T09:12:08.761Z,5.20
2024-01-03T09:14:35.952Z,5.00
2024-01-03T09:17:02.965Z,4.50
2024-01-03T09:19:32.095Z,4.20
2024-01-03T09:22:00.569Z,4.10
2024-01-03T09:24:30.341Z,3.60
2024-01-03T09:26:58.950Z,2.50
2024-01-03T09:29:26.009Z,3.90
2024-01-03T09:31:53.498Z,3.90
2024-01-03T09:34:20.628Z,4.60
2024-01-03T09:36:47.513Z,5.00
2024-01-03T09:39:16.905Z,5.10
2024-01-03T09:41:43.646Z,5.10
2024-01-03T09:44:11.215Z,6.00
2024-01-03T09:46:38.168Z,6.20
2024-01-03T09:49:05.132Z,5.80
2024-01-03T09:51:32.325Z,7.90
2024-01-03T09:53:59.796Z,8.00
2024-01-03T09:56:27.047Z,7.60
2024-01-03T09:58:53.671Z,6.50
2024-01-03T10:01:20.833Z,5.90
2024-01-03T10:03:47.841Z,6.00
2024-01-03T10:06:19.301Z,6.40
2024-01-03T10:09:18.377Z,5.40
2024-01-03T10:11:45.755Z,5.80
2024-01-03T10:14:18.256Z,6.20
2024-01-03T10:16:45.885Z,4.80
2024-01-03T10:19:18.109Z,5.10
2024-01-03T10:21:52.436Z,5.00
2024-01-03T10:24:24.231Z,4.50
2024-01-03T10:26:51.405Z,5.60
2024-01-03T10:29:19.789Z,5.40
2024-01-03T10:31:47.893Z,5.60
2024-01-03T10:34:21.426Z,5.30
2024-01-03T10:36:48.786Z,4.20
2024-01-03T10:39:16.453Z,4.10
2024-01-03T10:41:44.550Z,4.90
2024-01-03T10:44:12.914Z,4.80
2024-01-03T10:46:43.122Z,4.50
2024-01-03T10:49:10.033Z,4.30
2024-01-03T10:51:43.018Z,4.20
2024-01-03T10:54:11.886Z,4.10
2024-01-03T10:56:39.302Z,3.60
2024-01-03T10:59:06.152Z,3.90
2024-01-03T11:01:35.925Z,3.60
2024-01-03T11:04:26.111Z,3.40
2024-01-03T11:07:14.326Z,3.40
2024-01-03T11:09:42.216Z,3.30
2024-01-03T11:12:14.107Z,3.50
2024-01-03T11:14:41.442Z,3.40
2024-01-03T11:17:11.729Z,3.00
2024-01-03T11:19:41.536Z,3.10
2024-01-03T11:22:08.792Z,3.00
2024-01-03T11:24:42.623Z,3.60
2024-01-03T11:27:20.049Z,3.00
2024-01-03T11:29:51.783Z,3.40
2024-01-03T11:32:35.799Z,2.50
2024-01-03T11:35:09.116Z,2.70
2024-01-03T11:40:06.691Z,2.70
2024-01-03T11:45:16.216Z,3.00
2024-01-03T11:47:47.349Z,2.70
2024-01-03T11:50:15.805Z,2.90
2024-01-03T11:52:46.437Z,2.50
2024-01-03T11:57:44.672Z,2.70
2024-01-03T12:00:16.433Z,2.90
2024-01-03T12:03:04.162Z,2.60
2024-01-03T12:05:31.995Z,2.70
2024-01-03T12:07:59.311Z,2.60
2024-01-03T12:10:26.360Z,3.50
2024-01-03T12:12:53.236Z,2.90
2024-01-03T12:15:34.333Z,2.70
2024-01-03T12:18:10.578Z,3.00
2024-01-03T12:20:38.131Z,2.00
2024-01-03T12:23:08.484Z,2.60
2024-01-03T12:25:35.513Z,3.70
2024-01-03T12:28:02.191Z,2.70
2024-01-03T12:30:31.190Z,2.50
2024-01-03T12:33:15.654Z,3.20
2024-01-03T12:35:47.911Z,2.70
2024-01-03T12:38:15.365Z,2.10
2024-01-03T12:40:44.473Z,2.60
2024-01-03T12:43:13.544Z,2.30
2024-01-03T12:45:42.647Z,2.20
2024-01-03T12:48:09.362Z,2.10
2024-01-03T12:50:37.817Z,2.60
2024-01-03T12:53:04.400Z,2.50
2024-01-03T12:55:31.449Z,1.90
2024-01-03T12:57:59.153Z,2.10
2024-01-03T13:00:25.995Z,2.00
2024-01-03T13:02:53.308Z,2.10
2024-01-03T13:05:20.674Z,2.30
2024-01-03T13:07:47.738Z,1.90
2024-01-03T13:10:15.069Z,1.70
2024-01-03T13:12:41.748Z,1.90
2024-01-03T13:15:09.450Z,1.80
2024-01-03T13:17:36.842Z,2.10
2024-01-03T13:20:04.461Z,1.80
2024-01-03T13:22:32.333Z,2.10
2024-01-03T13:24:59.177Z,1.90
2024-01-03T13:27:27.379Z,1.90
2024-01-03T13:29:54.374Z,2.30
2024-01-03T13:32:21.011Z,2.00
2024-01-03T13:34:48.593Z,2.00
2024-01-03T13:37:15.882Z,2.30
2024-01-03T13:39:43.785Z,2.80
2024-01-03T13:42:12.684Z,2.70
2024-01-03T13:44:39.522Z,3.10
2024-01-03T13:47:06.337Z,3.00
2024-01-03T13:49:33.357Z,3.20
2024-01-03T13:52:00.850Z,2.70
2024-01-03T13:54:27.654Z,3.50
2024-01-03T13:56:54.461Z,3.80
2024-01-03T13:59:22.628Z,3.80
2024-01-03T14:01:49.744Z,3.10
2024-01-03T14:04:19.809Z,2.80
2024-01-03T14:06:47.412Z,2.90
2024-01-03T14:09:16.338Z,3.00
2024-01-03T14:11:45.894Z,2.50
2024-01-03T14:16:46.962Z,3.10
2024-01-03T14:19:14.958Z,2.60
2024-01-03T14:21:50.688Z,3.10
2024-01-03T14:24:20.105Z,3.10
2024-01-03T14:26:47.696Z,3.30
2024-01-03T14:29:14.710Z,3.70
2024-01-03T14:31:43.607Z,3.50
2024-01-03T14:34:11.344Z,3.40
2024-01-03T14:36:38.305Z,3.80
2024-01-03T14:39:09.041Z,3.60
2024-01-03T14:41:36.272Z,3.80
2024-01-03T14:44:05.931Z,3.90
2024-01-03T14:46:35.477Z,2.90
2024-01-03T14:49:02.256Z,3.60
2024-01-03T14:51:29.223Z,3.70
2024-01-03T14:53:57.889Z,3.50
2024-01-03T14:56:28.083Z,3.70
2024-01-03T14:58:55.880Z,3.40
2024-01-03T15:01:22.831Z,3.20
2024-01-03T15:03:49.898Z,3.90
2024-01-03T15:06:18.892Z,3.90
2024-01-03T15:08:46.834Z,3.40
2024-01-03T15:11:14.285Z,3.40
2024-01-03T15:13:42.163Z,3.50
2024-01-03T15:16:09.255Z,2.90
2024-01-03T15:18:37.725Z,3.30
2024-01-03T15:21:05.257Z,3.20
2024-01-03T15:23:32.172Z,3.40
2024-01-03T15:25:58.956Z,3.70
2024-01-03T15:28:27.979Z,3.30
2024-01-03T15:30:54.851Z,3.20
2024-01-03T15:33:31.297Z,3.30
2024-01-03T15:35:58.183Z,3.40
2024-01-03T15:38:25.485Z,3.20
2024-01-03T15:40:53.256Z,3.00
2024-01-03T15:43:20.039Z,3.30
2024-01-03T15:45:46.892Z,3.80
2024-01-03T15:48:14.512Z,3.50
2024-01-03T15:50:41.912Z,3.10
2024-01-03T15:53:10.122Z,2.80
2024-01-03T15:55:37.065Z,3.20
2024-01-03T15:58:04.610Z,2.80
2024-01-03T16:00:34.334Z,3.00
2024-01-03T16:03:02.169Z,3.00
2024-01-03T16:05:29.896Z,2.70
2024-01-03T16:07:57.002Z,2.80
2024-01-03T16:10:24.042Z,2.50
2024-01-03T16:12:50.896Z,2.10
2024-01-03T16:15:17.709Z,2.20
2024-01-03T16:17:44.914Z,2.40
2024-01-03T16:20:14.040Z,2.50
2024-01-03T16:22:40.594Z,2.70
2024-01-03T16:25:11.162Z,3.10
2024-01-03T16:27:39.134Z,3.10
2024-01-03T16:30:06.684Z,2.90
2024-01-03T16:32:34.841Z,2.90
2024-01-03T16:35:04.358Z,3.10
2024-01-03T16:37:32.828Z,2.70
2024-01-03T16:39:59.796Z,3.00
2024-01-03T16:42:26.862Z,3.10
2024-01-03T16:44:53.667Z,2.80
2024-01-03T16:47:20.520Z,2.90
2024-01-03T16:49:47.486Z,3.00
2024-01-03T16:52:14.252Z,3.20
2024-01-03T16:54:40.904Z,3.20
2024-01-03T16:57:07.760Z,3.30
2024-01-03T16:59:34.851Z,3.10
2024-01-03T17:02:02.453Z,3.30
2024-01-03T17:04:29.400Z,3.40
2024-01-03T17:06:56.468Z,4.60
2024-01-03T17:09:23.098Z,5.40
2024-01-03T17:11:50.027Z,4.70
2024-01-03T17:14:17.291Z,4.40
2024-01-03T17:16:44.853Z,4.00
2024-01-03T17:19:12.029Z,4.50
2024-01-03T17:23:31.569Z,3.60
2024-01-03T17:25:59.200Z,3.70
2024-01-03T17:28:27.442Z,4.00
2024-01-03T17:30:56.119Z,4.90
2024-01-03T17:33:23.879Z,4.40
2024-01-03T17:35:51.821Z,4.10
2024-01-03T17:38:19.342Z,5.10
2024-01-03T17:40:46.744Z,5.00
2024-01-03T17:43:14.160Z,4.50
2024-01-03T17:45:41.714Z,4.50
2024-01-03T17:48:09.455Z,4.10
2024-01-03T17:50:37.606Z,5.60
2024-01-03T17:53:05.180Z,5.80
2024-01-03T17:55:32.827Z,5.30
2024-01-03T17:58:00.391Z,4.80
2024-01-03T18:00:28.046Z,4.00
2024-01-03T18:02:55.674Z,4.10
2024-01-03T18:05:23.230Z,3.70
2024-01-03T18:07:51.815Z,4.40
2024-01-03T18:10:19.283Z,4.20
2024-01-03T18:12:46.886Z,4.30
2024-01-03T18:15:14.532Z,3.80
2024-01-03T18:17:43.162Z,3.60
2024-01-03T18:20:11.517Z,3.80
2024-01-03T18:22:41.137Z,3.80
2024-01-03T18:25:10.208Z,3.70
2024-01-03T18:27:37.629Z,4.30
2024-01-03T18:30:11.307Z,4.70
2024-01-03T18:32:39.671Z,4.60
2024-01-03T18:35:09.821Z,4.70
2024-01-03T18:37:42.282Z,4.10
2024-01-03T18:40:10.912Z,4.20
2024-01-03T18:42:39.997Z,4.10
2024-01-03T18:45:09.569Z,3.80
2024-01-03T18:47:37.194Z,4.10
2024-01-03T18:50:07.804Z,3.80
2024-01-03T18:52:35.604Z,3.40
2024-01-03T18:55:03.254Z,3.10
2024-01-03T18:57:30.961Z,2.60
2024-01-03T18:59:59.390Z,2.50
2024-01-03T19:02:27.252Z,2.40
2024-01-03T19:04:54.875Z,2.50
2024-01-03T19:07:23.147Z,2.50
2024-01-03T19:09:50.777Z,2.40
2024-01-03T19:12:19.569Z,2.40
2024-01-03T19:14:46.943Z,2.00
2024-01-03T19:17:14.806Z,2.60
2024-01-03T19:19:42.671Z,2.70
2024-01-03T19:22:10.370Z,2.70
2024-01-03T19:24:37.921Z,2.70
2024-01-03T19:27:05.886Z,2.40
2024-01-03T19:29:33.681Z,2.40
2024-01-03T19:32:01.330Z,2.50
2024-01-03T19:34:30.213Z,3.00
2024-01-03T19:36:57.874Z,2.80
2024-01-03T19:39:25.421Z,2.60
2024-01-03T19:41:53.246Z,2.90
2024-01-03T19:44:21.235Z,2.80
2024-01-03T19:46:48.804Z,3.40
2024-01-03T19:49:16.317Z,3.40
2024-01-03T19:51:44.119Z,3.40
2024-01-03T19:54:11.777Z,3.60
2024-01-03T19:56:43.713Z,3.70
2024-01-03T19:59:11.254Z,3.90
2024-01-03T20:01:38.861Z,3.70
2024-01-03T20:04:07.115Z,3.60
2024-01-03T20:06:34.769Z,3.90
2024-01-03T20:09:02.718Z,3.90
2024-01-03T20:11:30.364Z,4.80
2024-01-03T20:13:58.513Z,5.70
2024-01-03T20:16:25.897Z,5.60
2024-01-03T20:18:55.226Z,5.00
2024-01-03T20:21:22.767Z,4.90
2024-01-03T20:23:50.973Z,5.40
2024-01-03T20:26:18.798Z,4.70
2024-01-03T20:28:48.377Z,4.60
2024-01-03T20:31:18.108Z,4.90
2024-01-03T20:33:45.964Z,4.90
2024-01-03T20:36:13.897Z,4.10
2024-01-03T20:38:42.021Z,3.90
2024-01-03T20:41:09.763Z,3.60
2024-01-03T20:43:37.921Z,4.00
2024-01-03T20:46:06.896Z,3.70
2024-01-03T20:48:36.314Z,3.80
2024-01-03T20:51:05.519Z,3.60
2024-01-03T20:53:33.013Z,2.90
2024-01-03T20:56:00.543Z,3.10
2024-01-03T20:58:28.128Z,3.20
2024-01-03T21:00:55.620Z,3.10
2024-01-03T21:03:23.094Z,3.10
2024-01-03T21:05:50.834Z,3.00
2024-01-03T21:08:18.454Z,2.90
2024-01-03T21:10:46.025Z,2.80
2024-01-03T21:13:13.534Z,3.00
2024-01-03T21:15:41.042Z,3.00
2024-01-03T21:18:08.807Z,2.60
2024-01-03T21:20:36.540Z,2.90
2024-01-03T21:23:04.220Z,2.70
2024-01-03T21:25:31.776Z,2.70
2024-01-03T21:28:01.655Z,2.60
2024-01-03T21:30:29.339Z,2.70
2024-01-03T21:32:57.082Z,2.80
2024-01-03T21:35:24.671Z,2.80
2024-01-03T21:37:52.073Z,3.80
2024-01-03T21:40:19.700Z,3.20
2024-01-03T21:42:49.513Z,2.50
2024-01-03T21:45:18.595Z,2.00
2024-01-03T21:47:46.325Z,2.30
2024-01-03T21:50:14.076Z,2.20
2024-01-03T21:52:47.667Z,2.00
2024-01-03T21:55:15.336Z,1.80
2024-01-03T21:57:43.943Z,1.80
2024-01-03T22:00:12.218Z,1.70
2024-01-03T22:02:39.710Z,1.60
2024-01-03T22:05:12.989Z,2.00
2024-01-03T22:07:40.669Z,1.90
2024-01-03T22:10:16.007Z,2.00
2024-01-03T22:12:49.545Z,2.10
2024-01-03T22:15:18.706Z,2.80
2024-01-03T22:17:46.679Z,2.30
2024-01-03T22:20:14.824Z,2.00
2024-01-03T22:22:44.038Z,2.30
2024-01-03T22:25:11.908Z,2.20
2024-01-03T22:27:41.111Z,2.20
2024-01-03T22:30:09.733Z,2.90
2024-01-03T22:32:37.650Z,2.60
2024-01-03T22:35:07.431Z,2.50
2024-01-03T22:37:35.059Z,2.50
2024-01-03T22:40:02.925Z,2.80
2024-01-03T22:42:34.356Z,2.60
2024-01-03T22:45:03.187Z,2.40
2024-01-03T22:47:31.320Z,2.30
2024-01-03T22:49:59.191Z,2.40
2024-01-03T22:52:26.814Z,2.50
2024-01-03T22:54:54.857Z,3.00
2024-01-03T22:57:22.614Z,2.60
2024-01-03T22:59:50.594Z,3.30
2024-01-03T23:02:18.730Z,4.30
2024-01-03T23:04:46.237Z,4.50
2024-01-03T23:07:13.881Z,6.10
2024-01-03T23:09:41.601Z,7.10
2024-01-03T23:12:09.971Z,7.40
2024-01-03T23:14:37.655Z,9.20
2024-01-03T23:17:14.996Z,10.70
2024-01-03T23:19:48.396Z,10.60
2024-01-03T23:22:16.032Z,10.60
2024-01-03T23:24:43.722Z,8.30
2024-01-03T23:27:11.498Z,5.90
2024-01-03T23:29:39.247Z,5.80
2024-01-03T23:32:07.484Z,5.10
2024-01-03T23:34:36.039Z,4.60
2024-01-03T23:37:03.674Z,4.30
2024-01-03T23:39:31.488Z,3.80
2024-01-03T23:41:59.151Z,3.70
2024-01-03T23:44:26.581Z,3.40
2024-01-03T23:46:53.922Z,3.30
2024-01-03T23:49:21.467Z,3.40
2024-01-03T23:51:49.212Z,3.60
2024-01-03T23:54:17.514Z,3.00
2024-01-03T23:56:45.178Z,3.80
2024-01-03T23:59:12.800Z,4.30
